Time;durP1;ratioP1;P1;durP2;ratioP2;P2;SDS_P1;SDS_P2;PMS_P1;PMS_P2;Temp;Humidity;BMP_temperature;BMP_pressure;BME280_temperature;BME280_humidity;BME280_pressure;Samples;Min_cycle;Max_cycle;Signal;HPM_P1;HPM_P2
2023/12/27 00:01:29;;;;;;;7.33;2.20;;;;;;;;;;4919562;29;20250;-88
2023/12/27 00:03:55;;;;;;;6.80;2.30;;;;;;;;;;4906192;29;20292;-88
2023/12/27 00:06:30;;;;;;;6.33;2.43;;;;;;;;;;4889538;29;20228;-90
2023/12/27 00:08:58;;;;;;;8.47;2.63;;;;;;;;;;4927939;29;20738;-89
2023/12/27 00:11:24;;;;;;;9.13;2.20;;;;;;;;;;4909122;28;20210;-85
2023/12/27 00:13:52;;;;;;;9.53;2.23;;;;;;;;;;4940862;29;20239;-84
2023/12/27 00:16:17;;;;;;;11.77;2.13;;;;;;;;;;4917937;28;20245;-86
2023/12/27 00:18:45;;;;;;;6.07;2.00;;;;;;;;;;4904284;29;20721;-84
2023/12/27 00:21:11;;;;;;;8.40;2.30;;;;;;;;;;4939304;28;20222;-85
2023/12/27 00:23:36;;;;;;;7.60;2.70;;;;;;;;;;4907770;29;20234;-84
2023/12/27 00:26:02;;;;;;;10.30;2.40;;;;;;;;;;4934579;28;20207;-84
2023/12/27 00:28:28;;;;;;;9.87;2.53;;;;;;;;;;4941002;28;20219;-86
2023/12/27 00:30:54;;;;;;;10.90;1.90;;;;;;;;;;4913174;28;20231;-88
2023/12/27 00:33:22;;;;;;;11.60;2.57;;;;;;;;;;4892926;29;20311;-85
2023/12/27 00:35:51;;;;;;;11.13;1.77;;;;;;;;;;4941821;29;20702;-87
2023/12/27 00:38:39;;;;;;;11.93;2.67;;;;;;;;;;4898473;29;20334;-88
2023/12/27 00:41:05;;;;;;;6.33;1.60;;;;;;;;;;4922195;29;20294;-88
2023/12/27 00:43:34;;;;;;;8.40;1.97;;;;;;;;;;4955085;29;20226;-88
2023/12/27 00:45:59;;;;;;;10.83;2.63;;;;;;;;;;4923978;29;20239;-88
2023/12/27 00:48:25;;;;;;;8.37;1.80;;;;;;;;;;4910544;29;20214;-87
2023/12/27 00:50:50;;;;;;;8.87;1.97;;;;;;;;;;4910285;29;20234;-88
2023/12/27 00:53:20;;;;;;;6.97;1.77;;;;;;;;;;4909596;28;20215;-87
2023/12/27 00:55:45;;;;;;;5.40;2.03;;;;;;;;;;4910852;29;20289;-87
2023/12/27 00:58:11;;;;;;;6.90;2.07;;;;;;;;;;4923643;28;20623;-87
2023/12/27 01:00:39;;;;;;;6.00;1.83;;;;;;;;;;4924732;29;20227;-90
2023/12/27 01:03:04;;;;;;;10.20;2.17;;;;;;;;;;4907397;29;20233;-87
2023/12/27 01:05:30;;;;;;;9.73;2.07;;;;;;;;;;4936222;29;20227;-87
2023/12/27 01:07:58;;;;;;;8.63;2.30;;;;;;;;;;4905050;29;20667;-86
2023/12/27 01:10:24;;;;;;;8.33;1.90;;;;;;;;;;4931051;29;20230;-87
2023/12/27 01:12:49;;;;;;;6.37;1.80;;;;;;;;;;4905918;28;20230;-87
2023/12/27 01:15:15;;;;;;;9.57;1.80;;;;;;;;;;4941487;29;20226;-88
2023/12/27 01:17:43;;;;;;;7.93;2.20;;;;;;;;;;4895195;29;20226;-87
2023/12/27 01:20:15;;;;;;;7.60;2.13;;;;;;;;;;4908667;29;20222;-89
2023/12/27 01:22:41;;;;;;;10.30;1.90;;;;;;;;;;4903190;29;20238;-87
2023/12/27 01:25:06;;;;;;;6.90;2.00;;;;;;;;;;4938379;28;20225;-87
2023/12/27 01:27:32;;;;;;;6.30;2.10;;;;;;;;;;4892448;29;20314;-87
2023/12/27 01:29:58;;;;;;;7.90;2.10;;;;;;;;;;4914417;29;20237;-87
2023/12/27 01:32:25;;;;;;;9.63;2.60;;;;;;;;;;4940480;29;20234;-87
2023/12/27 01:34:56;;;;;;;16.43;2.43;;;;;;;;;;4938267;28;20219;-86
2023/12/27 01:37:21;;;;;;;8.40;2.00;;;;;;;;;;4920580;29;20223;-88
2023/12/27 01:39:47;;;;;;;6.67;2.50;;;;;;;;;;4928495;28;20759;-87
2023/12/27 01:42:12;;;;;;;8.63;2.00;;;;;;;;;;4891305;29;20223;-89
2023/12/27 01:44:38;;;;;;;12.83;2.30;;;;;;;;;;4916954;29;20700;-88
2023/12/27 01:47:07;;;;;;;6.70;1.70;;;;;;;;;;4942726;28;20317;-87
2023/12/27 01:49:33;;;;;;;6.03;1.60;;;;;;;;;;4909301;29;20219;-88
2023/12/27 01:51:58;;;;;;;10.13;2.37;;;;;;;;;;4908270;29;20226;-88
2023/12/27 01:54:24;;;;;;;7.33;1.90;;;;;;;;;;4938522;28;20214;-87
2023/12/27 01:56:50;;;;;;;10.03;2.50;;;;;;;;;;4907197;29;20239;-86
2023/12/27 01:59:15;;;;;;;11.67;2.33;;;;;;;;;;4899448;28;20211;-88
2023/12/27 02:01:44;;;;;;;8.60;2.30;;;;;;;;;;4904458;29;20231;-88
2023/12/27 02:04:14;;;;;;;7.00;2.33;;;;;;;;;;4917261;28;20821;-87
2023/12/27 02:06:44;;;;;;;8.20;2.13;;;;;;;;;;4923223;29;20235;-87
2023/12/27 02:09:10;;;;;;;9.57;1.90;;;;;;;;;;4896686;28;20286;-86
2023/12/27 02:11:36;;;;;;;6.13;2.10;;;;;;;;;;4927142;29;20223;-88
2023/12/27 02:14:01;;;;;;;8.30;2.33;;;;;;;;;;4935672;28;20223;-87
2023/12/27 02:16:31;;;;;;;9.93;2.37;;;;;;;;;;4907079;29;20223;-88
2023/12/27 02:18:57;;;;;;;7.73;2.10;;;;;;;;;;4923640;28;20230;-88
2023/12/27 02:21:23;;;;;;;8.97;2.37;;;;;;;;;;4906550;29;20581;-87
2023/12/27 02:23:49;;;;;;;4.80;1.80;;;;;;;;;;4906201;28;20226;-87
2023/12/27 02:26:17;;;;;;;4.63;1.73;;;;;;;;;;4906945;28;20227;-86
2023/12/27 02:28:42;;;;;;;8.37;2.40;;;;;;;;;;4908610;29;20237;-88
2023/12/27 02:31:08;;;;;;;11.60;2.40;;;;;;;;;;4923613;28;20219;-87
2023/12/27 02:33:37;;;;;;;15.00;1.97;;;;;;;;;;4906148;29;20231;-87
2023/12/27 02:36:02;;;;;;;9.50;2.03;;;;;;;;;;4906643;28;20578;-89
2023/12/27 02:38:28;;;;;;;7.53;2.20;;;;;;;;;;4901847;29;20238;-88
2023/12/27 02:40:55;;;;;;;5.77;1.80;;;;;;;;;;4926406;29;20369;-87
2023/12/27 02:43:21;;;;;;;6.10;2.20;;;;;;;;;;4937073;29;20219;-88
2023/12/27 02:45:49;;;;;;;3.50;1.60;;;;;;;;;;4906763;29;20249;-87
2023/12/27 02:48:15;;;;;;;5.60;1.90;;;;;;;;;;4898303;28;20218;-83
2023/12/27 02:50:44;;;;;;;15.27;2.37;;;;;;;;;;4928623;29;20235;-85
2023/12/27 02:53:12;;;;;;;10.70;2.47;;;;;;;;;;4929315;28;20227;-86
2023/12/27 02:55:39;;;;;;;10.50;2.00;;;;;;;;;;4925758;28;20280;-85
2023/12/27 02:58:05;;;;;;;10.73;2.10;;;;;;;;;;4929233;28;20217;-86
2023/12/27 03:00:35;;;;;;;12.07;2.00;;;;;;;;;;4943331;29;20214;-85
2023/12/27 03:03:02;;;;;;;8.13;1.90;;;;;;;;;;4906744;28;20226;-85
2023/12/27 03:05:30;;;;;;;8.20;1.80;;;;;;;;;;4930990;29;20282;-86
2023/12/27 03:07:58;;;;;;;11.03;1.97;;;;;;;;;;4951726;28;20230;-86
2023/12/27 03:10:24;;;;;;;9.17;2.37;;;;;;;;;;4888840;29;20293;-88
2023/12/27 03:12:52;;;;;;;10.37;2.00;;;;;;;;;;4921768;28;20226;-87
2023/12/27 03:15:30;;;;;;;9.77;2.63;;;;;;;;;;4921330;29;20535;-88
2023/12/27 03:17:56;;;;;;;6.60;2.17;;;;;;;;;;4914067;29;20293;-89
2023/12/27 03:20:24;;;;;;;10.87;2.23;;;;;;;;;;4902222;29;20693;-88
2023/12/27 03:22:51;;;;;;;7.97;1.77;;;;;;;;;;4916226;29;20727;-86
2023/12/27 03:25:17;;;;;;;10.83;2.20;;;;;;;;;;4904963;28;20214;-87
2023/12/27 03:27:45;;;;;;;13.43;2.37;;;;;;;;;;4898215;29;20250;-86
2023/12/27 03:30:11;;;;;;;11.07;2.47;;;;;;;;;;4903411;28;20249;-88
2023/12/27 03:32:37;;;;;;;10.97;2.57;;;;;;;;;;4889582;29;20305;-88
2023/12/27 03:35:04;;;;;;;8.73;2.30;;;;;;;;;;4903544;28;20228;-86
2023/12/27 03:37:32;;;;;;;12.43;2.20;;;;;;;;;;4899249;29;20226;-89
2023/12/27 03:39:59;;;;;;;13.93;2.33;;;;;;;;;;4890378;28;20218;-88
2023/12/27 03:42:25;;;;;;;8.20;1.90;;;;;;;;;;4891828;28;20212;-84
2023/12/27 03:44:52;;;;;;;6.30;1.70;;;;;;;;;;4923177;28;20229;-84
2023/12/27 03:47:23;;;;;;;12.10;1.83;;;;;;;;;;4890174;28;20230;-88
2023/12/27 03:49:48;;;;;;;5.67;1.80;;;;;;;;;;4887764;29;20227;-88
2023/12/27 03:52:17;;;;;;;6.13;1.90;;;;;;;;;;4921543;28;20233;-88
2023/12/27 03:54:45;;;;;;;4.53;1.93;;;;;;;;;;4885686;29;20335;-87
2023/12/27 03:57:13;;;;;;;8.73;2.43;;;;;;;;;;4942288;28;20227;-87
2023/12/27 04:03:27;;;;;;;7.97;1.97;;;;;;;;;;4961204;28;20237;-85
2023/12/27 04:05:52;;;;;;;6.57;1.67;;;;;;;;;;4917637;29;20231;-87
2023/12/27 04:08:19;;;;;;;4.93;1.60;;;;;;;;;;4918736;29;20223;-87
2023/12/27 04:10:44;;;;;;;3.17;1.37;;;;;;;;;;4941288;29;20231;-88
2023/12/27 04:13:16;;;;;;;9.60;1.80;;;;;;;;;;4942542;28;20242;-87
2023/12/27 04:15:46;;;;;;;3.43;1.47;;;;;;;;;;4933110;29;20227;-87
2023/12/27 04:18:12;;;;;;;10.40;1.67;;;;;;;;;;4960069;28;20246;-87
2023/12/27 04:20:40;;;;;;;5.30;1.53;;;;;;;;;;4910084;29;20230;-88
2023/12/27 04:23:08;;;;;;;3.73;1.33;;;;;;;;;;4910148;28;20793;-88
2023/12/27 04:25:34;;;;;;;7.70;1.73;;;;;;;;;;4911885;29;20227;-87
2023/12/27 04:28:04;;;;;;;4.53;1.57;;;;;;;;;;4909921;29;20240;-89
2023/12/27 04:30:29;;;;;;;8.53;1.50;;;;;;;;;;4905059;29;20600;-88
2023/12/27 04:32:58;;;;;;;5.20;1.63;;;;;;;;;;4914778;29;20231;-88
2023/12/27 04:35:23;;;;;;;5.10;1.63;;;;;;;;;;4925594;28;20260;-88
2023/12/27 04:37:49;;;;;;;6.73;1.67;;;;;;;;;;4910121;29;20227;-87
2023/12/27 04:40:14;;;;;;;5.07;1.43;;;;;;;;;;4935225;28;20230;-85
2023/12/27 04:42:42;;;;;;;6.67;1.30;;;;;;;;;;4919817;29;20625;-87
2023/12/27 04:45:08;;;;;;;6.60;1.70;;;;;;;;;;4893483;28;20219;-87
2023/12/27 04:47:34;;;;;;;4.80;1.67;;;;;;;;;;4895811;29;20482;-87
2023/12/27 04:50:02;;;;;;;9.07;1.70;;;;;;;;;;4940443;28;20223;-87
2023/12/27 04:52:30;;;;;;;6.30;1.70;;;;;;;;;;4916794;28;20286;-88
2023/12/27 04:54:56;;;;;;;6.30;2.00;;;;;;;;;;4930719;29;20227;-87
2023/12/27 04:57:21;;;;;;;2.93;1.40;;;;;;;;;;4916355;28;20218;-86
2023/12/27 04:59:48;;;;;;;4.60;1.50;;;;;;;;;;4892825;29;20282;-88
2023/12/27 05:02:13;;;;;;;4.70;1.67;;;;;;;;;;4957601;28;20235;-85
2023/12/27 05:04:42;;;;;;;6.23;2.03;;;;;;;;;;4915871;28;20226;-82
2023/12/27 05:07:08;;;;;;;6.37;1.73;;;;;;;;;;4938593;28;20293;-87
2023/12/27 05:09:34;;;;;;;7.57;1.33;;;;;;;;;;4912412;29;20234;-87
2023/12/27 05:12:01;;;;;;;3.90;1.60;;;;;;;;;;4945775;29;20223;-84
2023/12/27 05:14:27;;;;;;;3.67;1.47;;;;;;;;;;4904606;29;20226;-87
2023/12/27 05:16:55;;;;;;;4.67;1.80;;;;;;;;;;4921114;29;20230;-87
2023/12/27 05:19:21;;;;;;;4.77;1.77;;;;;;;;;;4922638;28;20239;-88
2023/12/27 05:21:47;;;;;;;4.97;1.33;;;;;;;;;;4939710;29;20254;-88
2023/12/27 05:24:12;;;;;;;6.50;1.53;;;;;;;;;;4902406;28;20226;-87
2023/12/27 05:26:41;;;;;;;6.03;1.50;;;;;;;;;;4924254;29;20305;-87
2023/12/27 05:29:10;;;;;;;7.50;1.50;;;;;;;;;;4909613;28;20246;-87
2023/12/27 05:31:36;;;;;;;6.57;1.70;;;;;;;;;;4923613;29;20632;-87
2023/12/27 05:34:01;;;;;;;9.50;1.70;;;;;;;;;;4917710;28;20291;-87
2023/12/27 05:36:27;;;;;;;9.17;2.00;;;;;;;;;;4904128;29;20234;-85
2023/12/27 05:38:57;;;;;;;3.53;1.57;;;;;;;;;;4924155;29;20257;-86
2023/12/27 05:41:26;;;;;;;6.67;1.70;;;;;;;;;;4911048;28;20222;-87
2023/12/27 05:43:55;;;;;;;7.07;1.70;;;;;;;;;;4911911;29;20249;-86
2023/12/27 05:46:21;;;;;;;9.33;2.10;;;;;;;;;;4904531;29;20234;-85
2023/12/27 05:48:47;;;;;;;8.77;2.03;;;;;;;;;;4904521;29;20622;-85
2023/12/27 05:51:15;;;;;;;8.13;2.50;;;;;;;;;;4904751;28;20231;-87
2023/12/27 05:53:41;;;;;;;3.17;1.83;;;;;;;;;;4885849;29;20227;-88
2023/12/27 05:56:08;;;;;;;5.07;2.50;;;;;;;;;;4933799;29;20294;-88
2023/12/27 05:58:34;;;;;;;8.37;2.77;;;;;;;;;;4907224;29;20227;-86
2023/12/27 06:01:00;;;;;;;9.07;2.47;;;;;;;;;;4908210;29;20383;-87
2023/12/27 06:03:25;;;;;;;5.97;1.93;;;;;;;;;;4880461;29;20223;-88
2023/12/27 06:05:51;;;;;;;6.60;2.17;;;;;;;;;;4932312;29;20246;-89
2023/12/27 06:08:21;;;;;;;6.27;2.20;;;;;;;;;;4916107;28;20241;-87
2023/12/27 06:10:46;;;;;;;5.40;2.40;;;;;;;;;;4906981;29;20237;-86
2023/12/27 06:13:14;;;;;;;8.67;2.90;;;;;;;;;;4891685;28;20231;-86
2023/12/27 06:15:40;;;;;;;6.30;2.57;;;;;;;;;;4922580;29;20223;-87
2023/12/27 06:18:05;;;;;;;4.07;1.80;;;;;;;;;;4945535;28;20227;-86
2023/12/27 06:20:33;;;;;;;7.63;2.40;;;;;;;;;;4908546;28;20235;-86
2023/12/27 06:22:59;;;;;;;8.17;2.80;;;;;;;;;;4918956;29;20765;-84
2023/12/27 06:25:24;;;;;;;4.73;2.23;;;;;;;;;;4896618;29;20231;-86
2023/12/27 06:27:52;;;;;;;5.67;2.20;;;;;;;;;;4922696;29;20227;-87
2023/12/27 06:30:18;;;;;;;3.37;1.73;;;;;;;;;;4900732;28;20236;-87
2023/12/27 06:32:43;;;;;;;7.20;2.20;;;;;;;;;;4900013;29;20310;-88
2023/12/27 06:35:09;;;;;;;3.17;1.80;;;;;;;;;;4929704;28;20237;-88
2023/12/27 06:37:35;;;;;;;6.00;1.93;;;;;;;;;;4899356;29;20231;-87
2023/12/27 06:40:00;;;;;;;7.40;1.93;;;;;;;;;;4908015;28;20231;-87
2023/12/27 06:42:28;;;;;;;9.20;2.20;;;;;;;;;;4909999;29;20226;-87
2023/12/27 06:44:54;;;;;;;8.07;2.40;;;;;;;;;;4948666;28;20231;-86
2023/12/27 06:47:20;;;;;;;5.60;2.20;;;;;;;;;;4884873;28;20245;-86
2023/12/27 06:49:47;;;;;;;6.00;2.37;;;;;;;;;;4949339;28;20223;-89
2023/12/27 06:52:16;;;;;;;6.33;2.13;;;;;;;;;;4911274;28;20246;-88
2023/12/27 06:54:41;;;;;;;7.13;2.53;;;;;;;;;;4886399;29;20226;-88
2023/12/27 06:57:07;;;;;;;4.03;2.23;;;;;;;;;;4919693;28;20297;-89
2023/12/27 06:59:32;;;;;;;6.87;2.20;;;;;;;;;;4905711;29;20237;-87
2023/12/27 07:02:00;;;;;;;5.57;2.30;;;;;;;;;;4933862;28;20245;-88
2023/12/27 07:04:26;;;;;;;4.63;1.80;;;;;;;;;;4930753;29;20222;-88
2023/12/27 07:06:56;;;;;;;9.47;2.10;;;;;;;;;;4904408;29;20247;-89
2023/12/27 07:09:25;;;;;;;3.80;1.50;;;;;;;;;;4879933;29;20273;-87
2023/12/27 07:11:52;;;;;;;5.73;2.10;;;;;;;;;;4916119;28;20645;-88
2023/12/27 07:14:20;;;;;;;8.87;2.10;;;;;;;;;;4905194;28;20231;-88
2023/12/27 07:16:48;;;;;;;4.43;1.83;;;;;;;;;;4892819;29;20261;-86
2023/12/27 07:19:15;;;;;;;6.10;2.03;;;;;;;;;;4882755;29;20232;-86
2023/12/27 07:21:41;;;;;;;7.30;2.40;;;;;;;;;;4908806;28;20225;-87
2023/12/27 07:24:09;;;;;;;5.07;2.00;;;;;;;;;;4921055;28;20218;-87
2023/12/27 07:26:35;;;;;;;5.60;2.03;;;;;;;;;;4894938;29;20262;-89
2023/12/27 07:29:05;;;;;;;6.10;1.90;;;;;;;;;;4904012;29;20222;-88
2023/12/27 07:31:31;;;;;;;4.67;1.97;;;;;;;;;;4924625;29;20667;-88
2023/12/27 07:33:56;;;;;;;11.77;2.40;;;;;;;;;;4898097;29;20232;-87
2023/12/27 07:36:25;;;;;;;175.67;28.33;;;;;;;;;;4933687;28;20223;-85
2023/12/27 07:38:50;;;;;;;11.17;2.70;;;;;;;;;;4913626;29;20238;-88
2023/12/27 07:41:20;;;;;;;9.90;2.37;;;;;;;;;;4904860;28;20227;-86
2023/12/27 07:43:49;;;;;;;6.33;2.57;;;;;;;;;;4910505;29;20234;-86
2023/12/27 07:46:18;;;;;;;6.73;2.70;;;;;;;;;;4913980;28;20237;-85
2023/12/27 07:48:49;;;;;;;4.93;2.73;;;;;;;;;;4881566;29;20700;-88
2023/12/27 07:51:18;;;;;;;9.77;3.20;;;;;;;;;;4938872;28;20279;-86
2023/12/27 07:53:50;;;;;;;10.57;3.10;;;;;;;;;;4892605;29;20231;-87
2023/12/27 07:56:18;;;;;;;12.80;3.27;;;;;;;;;;4930507;28;20689;-88
2023/12/27 07:58:49;;;;;;;13.13;3.20;;;;;;;;;;4885346;29;20227;-87
2023/12/27 08:01:15;;;;;;;7.60;3.10;;;;;;;;;;4923019;28;20321;-87
2023/12/27 08:03:48;;;;;;;9.27;3.10;;;;;;;;;;4893361;29;20306;-87
2023/12/27 08:06:14;;;;;;;35.27;24.20;;;;;;;;;;4921918;28;20289;-87
2023/12/27 08:08:42;;;;;;;13.70;6.03;;;;;;;;;;4918537;28;20230;-86
2023/12/27 08:11:09;;;;;;;6.57;3.20;;;;;;;;;;4942002;29;20235;-88
2023/12/27 08:13:37;;;;;;;10.27;3.43;;;;;;;;;;4933494;28;20229;-88
2023/12/27 08:16:12;;;;;;;11.90;4.43;;;;;;;;;;4951400;28;20227;-84
2023/12/27 08:18:39;;;;;;;17.83;11.23;;;;;;;;;;4942029;28;20233;-86
2023/12/27 08:21:05;;;;;;;16.60;12.30;;;;;;;;;;4942739;29;20219;-84
2023/12/27 08:23:31;;;;;;;11.70;7.77;;;;;;;;;;4946096;29;20234;-84
2023/12/27 08:25:57;;;;;;;8.70;5.10;;;;;;;;;;4938275;28;20238;-89
2023/12/27 08:28:23;;;;;;;13.13;4.90;;;;;;;;;;4932902;28;20254;-85
2023/12/27 08:30:48;;;;;;;8.77;3.17;;;;;;;;;;4917425;29;20279;-84
2023/12/27 08:33:15;;;;;;;10.37;3.70;;;;;;;;;;4941401;28;20227;-84
2023/12/27 08:35:42;;;;;;;7.10;3.40;;;;;;;;;;4899625;29;20228;-87
2023/12/27 08:38:08;;;;;;;10.17;3.43;;;;;;;;;;4907680;28;20235;-87
2023/12/27 08:40:36;;;;;;;8.83;4.07;;;;;;;;;;4914221;29;20223;-86
2023/12/27 08:43:02;;;;;;;11.40;4.90;;;;;;;;;;4930342;29;21167;-85
2023/12/27 08:45:28;;;;;;;9.07;4.40;;;;;;;;;;4925088;28;20231;-85
2023/12/27 08:47:55;;;;;;;8.70;4.90;;;;;;;;;;4919007;28;20222;-86
2023/12/27 08:50:21;;;;;;;9.27;4.60;;;;;;;;;;4913940;28;20227;-88
2023/12/27 08:52:49;;;;;;;10.10;5.57;;;;;;;;;;4911426;29;20665;-86
2023/12/27 08:55:14;;;;;;;10.17;6.90;;;;;;;;;;4896410;28;20270;-87
2023/12/27 08:57:40;;;;;;;9.83;6.00;;;;;;;;;;4890056;29;20554;-87
2023/12/27 09:00:10;;;;;;;9.80;6.07;;;;;;;;;;4908561;29;20226;-86
2023/12/27 09:02:39;;;;;;;11.50;6.27;;;;;;;;;;4906696;29;20735;-86
2023/12/27 09:05:06;;;;;;;7.73;4.63;;;;;;;;;;4904422;29;20230;-87
2023/12/27 09:07:31;;;;;;;9.10;4.63;;;;;;;;;;4941890;29;20246;-88
2023/12/27 09:10:00;;;;;;;6.20;3.33;;;;;;;;;;4932860;29;20214;-87
2023/12/27 09:12:26;;;;;;;6.83;3.10;;;;;;;;;;4917105;28;20226;-86
2023/12/27 09:14:54;;;;;;;6.57;3.53;;;;;;;;;;4908110;29;20275;-86
2023/12/27 09:17:22;;;;;;;8.43;3.67;;;;;;;;;;4903082;28;20783;-85
2023/12/27 09:19:48;;;;;;;10.37;3.73;;;;;;;;;;4923815;29;20228;-86
2023/12/27 09:22:14;;;;;;;9.37;4.10;;;;;;;;;;4909874;28;20726;-85
2023/12/27 09:24:42;;;;;;;7.47;3.77;;;;;;;;;;4917821;29;20756;-88
2023/12/27 09:27:07;;;;;;;8.37;3.93;;;;;;;;;;4910877;29;20231;-85
2023/12/27 09:29:35;;;;;;;11.90;3.93;;;;;;;;;;4909321;29;20247;-87
2023/12/27 09:32:01;;;;;;;7.37;4.13;;;;;;;;;;4916959;28;20242;-84
2023/12/27 09:34:29;;;;;;;6.67;3.47;;;;;;;;;;4937054;28;20227;-88
2023/12/27 09:36:55;;;;;;;10.90;3.63;;;;;;;;;;4908016;29;20552;-84
2023/12/27 09:39:21;;;;;;;7.87;3.43;;;;;;;;;;4907012;28;20783;-89
2023/12/27 09:41:47;;;;;;;9.50;3.93;;;;;;;;;;4910379;28;20220;-86
2023/12/27 09:44:12;;;;;;;8.13;4.33;;;;;;;;;;4907552;28;20219;-87
2023/12/27 09:46:39;;;;;;;11.50;7.80;;;;;;;;;;4926209;28;21025;-88
2023/12/27 09:49:07;;;;;;;13.30;6.50;;;;;;;;;;4908353;29;20652;-88
2023/12/27 09:51:33;;;;;;;18.13;12.17;;;;;;;;;;4915398;29;20226;-88
2023/12/27 09:54:01;;;;;;;21.83;15.00;;;;;;;;;;4915830;29;20219;-85
2023/12/27 09:56:28;;;;;;;22.30;14.83;;;;;;;;;;4909732;28;20227;-86
2023/12/27 09:59:00;;;;;;;33.87;26.57;;;;;;;;;;4954306;28;20211;-87
2023/12/27 10:01:25;;;;;;;33.70;27.33;;;;;;;;;;4903197;28;20306;-86
2023/12/27 10:04:03;;;;;;;24.40;19.70;;;;;;;;;;4922676;29;20297;-88
2023/12/27 10:06:33;;;;;;;23.17;15.07;;;;;;;;;;4906257;28;20238;-86
2023/12/27 10:09:00;;;;;;;18.13;12.33;;;;;;;;;;4919650;29;20223;-86
2023/12/27 10:11:26;;;;;;;8.87;5.03;;;;;;;;;;4889744;29;20223;-86
2023/12/27 10:13:52;;;;;;;12.40;4.53;;;;;;;;;;4889282;29;20237;-87
2023/12/27 10:16:20;;;;;;;7.90;3.30;;;;;;;;;;4887455;28;20239;-87
2023/12/27 10:18:48;;;;;;;5.73;3.33;;;;;;;;;;4887056;29;20218;-86
2023/12/27 10:21:18;;;;;;;10.17;3.97;;;;;;;;;;4900123;28;20219;-85
2023/12/27 10:23:47;;;;;;;6.03;3.37;;;;;;;;;;4922329;29;20223;-86
2023/12/27 10:26:12;;;;;;;10.50;3.30;;;;;;;;;;4949359;28;20219;-86
2023/12/27 10:28:46;;;;;;;11.10;3.53;;;;;;;;;;4904838;29;20696;-84
2023/12/27 10:31:14;;;;;;;4.10;2.83;;;;;;;;;;4947131;28;20728;-85
2023/12/27 10:33:43;;;;;;;7.53;2.80;;;;;;;;;;4918070;29;20223;-85
2023/12/27 10:36:12;;;;;;;7.53;3.40;;;;;;;;;;4902892;29;20218;-86
2023/12/27 10:38:42;;;;;;;9.17;3.47;;;;;;;;;;4921366;28;20767;-85
2023/12/27 10:41:08;;;;;;;10.87;3.17;;;;;;;;;;4918331;29;20231;-86
2023/12/27 10:43:34;;;;;;;5.13;2.63;;;;;;;;;;4919298;28;20231;-84
2023/12/27 10:45:59;;;;;;;7.90;2.83;;;;;;;;;;4903053;29;20626;-85
2023/12/27 10:48:27;;;;;;;9.17;3.70;;;;;;;;;;4904278;28;20233;-85
2023/12/27 10:50:57;;;;;;;7.47;3.00;;;;;;;;;;4906284;29;20595;-84
2023/12/27 10:53:23;;;;;;;4.80;2.40;;;;;;;;;;4885549;28;20290;-85
2023/12/27 10:55:51;;;;;;;7.60;2.43;;;;;;;;;;4907995;29;20226;-87
2023/12/27 10:58:20;;;;;;;8.87;2.90;;;;;;;;;;4905098;29;20221;-84
2023/12/27 11:00:46;;;;;;;13.17;2.87;;;;;;;;;;4904643;29;20302;-86
2023/12/27 11:03:12;;;;;;;6.77;3.00;;;;;;;;;;4932338;28;20222;-84
2023/12/27 11:05:40;;;;;;;7.80;2.50;;;;;;;;;;4915338;29;20250;-87
2023/12/27 11:08:06;;;;;;;8.30;2.30;;;;;;;;;;4909814;28;20210;-85
2023/12/27 11:10:35;;;;;;;8.87;2.67;;;;;;;;;;4922158;29;20222;-86
2023/12/27 11:13:02;;;;;;;8.07;2.77;;;;;;;;;;4939857;29;20251;-86
2023/12/27 11:15:30;;;;;;;5.93;2.33;;;;;;;;;;4931386;29;20231;-86
2023/12/27 11:17:56;;;;;;;8.10;2.87;;;;;;;;;;4906887;29;20235;-86
2023/12/27 11:20:24;;;;;;;6.23;2.30;;;;;;;;;;4915266;28;20219;-85
2023/12/27 11:22:53;;;;;;;10.57;2.73;;;;;;;;;;4950470;29;20225;-82
2023/12/27 11:25:22;;;;;;;6.07;3.50;;;;;;;;;;4928057;28;20230;-84
2023/12/27 11:27:51;;;;;;;5.33;3.87;;;;;;;;;;4933941;29;20337;-84
2023/12/27 11:30:35;;;;;;;5.90;3.30;;;;;;;;;;4929684;29;20661;-87
2023/12/27 11:33:01;;;;;;;8.70;2.40;;;;;;;;;;4929263;29;20763;-84
2023/12/27 11:35:30;;;;;;;4.90;2.10;;;;;;;;;;4919508;28;20214;-85
2023/12/27 11:38:22;;;;;;;6.70;2.60;;;;;;;;;;4889508;29;20318;-85
2023/12/27 11:40:50;;;;;;;6.47;2.77;;;;;;;;;;4933321;28;20253;-87
2023/12/27 11:43:21;;;;;;;7.80;2.30;;;;;;;;;;4936043;29;20222;-84
2023/12/27 11:46:10;;;;;;;6.53;2.10;;;;;;;;;;4917969;29;20222;-88
2023/12/27 11:48:36;;;;;;;2.80;1.90;;;;;;;;;;4905024;28;20319;-86
2023/12/27 11:54:08;;;;;;;5.63;2.27;;;;;;;;;;4924926;29;20373;-85
2023/12/27 11:56:39;;;;;;;6.90;2.37;;;;;;;;;;4896936;29;20220;-86
2023/12/27 11:59:06;;;;;;;3.30;1.70;;;;;;;;;;4932918;29;20219;-86
2023/12/27 12:01:37;;;;;;;6.43;2.50;;;;;;;;;;4905882;28;20231;-87
2023/12/27 12:04:13;;;;;;;5.87;1.97;;;;;;;;;;4922164;29;20237;-87
2023/12/27 12:06:54;;;;;;;5.33;2.30;;;;;;;;;;4916735;29;20238;-86
2023/12/27 12:09:44;;;;;;;4.63;2.20;;;;;;;;;;4947877;28;20223;-84
2023/12/27 12:12:11;;;;;;;6.13;2.00;;;;;;;;;;4919680;29;20233;-87
2023/12/27 12:14:37;;;;;;;10.30;2.23;;;;;;;;;;4948843;28;20251;-87
2023/12/27 12:17:03;;;;;;;5.83;2.37;;;;;;;;;;4917272;29;20305;-83
2023/12/27 12:19:31;;;;;;;8.57;2.27;;;;;;;;;;4890430;28;20322;-86
2023/12/27 12:21:59;;;;;;;9.17;2.43;;;;;;;;;;4930725;29;20245;-85
2023/12/27 12:24:25;;;;;;;9.33;2.53;;;;;;;;;;4935192;28;20272;-85
2023/12/27 12:26:56;;;;;;;8.37;2.10;;;;;;;;;;4915853;29;20289;-87
2023/12/27 12:29:28;;;;;;;6.20;1.80;;;;;;;;;;4915398;28;20294;-82
2023/12/27 12:31:56;;;;;;;7.40;2.27;;;;;;;;;;4912176;28;20238;-84
2023/12/27 12:34:25;;;;;;;5.23;1.73;;;;;;;;;;4910267;28;20222;-88
2023/12/27 12:36:58;;;;;;;8.53;2.50;;;;;;;;;;4920528;29;20215;-86
2023/12/27 12:39:25;;;;;;;7.50;2.03;;;;;;;;;;4891984;29;20327;-87
2023/12/27 12:41:51;;;;;;;7.00;2.00;;;;;;;;;;4938152;28;20309;-87
2023/12/27 12:44:19;;;;;;;9.07;2.13;;;;;;;;;;4902960;28;20241;-86
2023/12/27 12:46:45;;;;;;;6.10;1.87;;;;;;;;;;4933424;29;20706;-88
2023/12/27 12:49:13;;;;;;;10.53;2.43;;;;;;;;;;4902423;28;20231;-87
2023/12/27 12:51:39;;;;;;;7.80;2.10;;;;;;;;;;4904228;28;20230;-86
2023/12/27 12:54:04;;;;;;;5.97;2.03;;;;;;;;;;4898682;28;20222;-87
2023/12/27 12:56:30;;;;;;;8.17;2.20;;;;;;;;;;4890755;29;20223;-87
2023/12/27 12:58:56;;;;;;;5.13;2.00;;;;;;;;;;4893200;29;20220;-88
2023/12/27 13:01:21;;;;;;;6.13;2.10;;;;;;;;;;4924042;29;20219;-87
2023/12/27 13:03:52;;;;;;;10.53;2.47;;;;;;;;;;4927765;29;20810;-88
2023/12/27 13:06:18;;;;;;;7.07;1.97;;;;;;;;;;4913819;29;20273;-87
2023/12/27 13:08:54;;;;;;;7.53;1.97;;;;;;;;;;4914225;29;20231;-86
2023/12/27 13:11:23;;;;;;;5.90;1.70;;;;;;;;;;4909558;29;20245;-87
2023/12/27 13:13:48;;;;;;;8.03;1.87;;;;;;;;;;4918248;28;20270;-87
2023/12/27 13:16:14;;;;;;;6.50;2.63;;;;;;;;;;4937158;29;20231;-87
2023/12/27 13:18:46;;;;;;;4.83;1.87;;;;;;;;;;4909680;29;20234;-88
2023/12/27 13:21:11;;;;;;;9.17;2.27;;;;;;;;;;4915851;28;20229;-88
2023/12/27 13:23:44;;;;;;;6.80;1.83;;;;;;;;;;4899633;28;20257;-86
2023/12/27 13:26:16;;;;;;;10.60;2.50;;;;;;;;;;4918759;28;20266;-87
2023/12/27 13:28:42;;;;;;;5.73;2.20;;;;;;;;;;4908472;29;20234;-87
2023/12/27 13:31:08;;;;;;;5.90;2.10;;;;;;;;;;4894166;29;20435;-87
2023/12/27 13:33:37;;;;;;;9.20;2.10;;;;;;;;;;4922584;29;20238;-87
2023/12/27 13:36:03;;;;;;;8.03;2.27;;;;;;;;;;4898889;29;20349;-86
2023/12/27 13:38:31;;;;;;;5.30;2.10;;;;;;;;;;4904036;29;20231;-86
2023/12/27 13:40:57;;;;;;;7.67;2.00;;;;;;;;;;4921320;29;20255;-88
2023/12/27 13:43:26;;;;;;;5.03;1.83;;;;;;;;;;4921908;29;20231;-86
2023/12/27 13:45:54;;;;;;;4.23;2.00;;;;;;;;;;4889503;29;20224;-86
2023/12/27 13:48:22;;;;;;;3.87;1.73;;;;;;;;;;4907941;29;20305;-87
2023/12/27 13:50:47;;;;;;;6.53;2.00;;;;;;;;;;4911108;29;20282;-88
2023/12/27 13:53:16;;;;;;;6.43;1.90;;;;;;;;;;4910290;29;20227;-87
2023/12/27 13:55:42;;;;;;;6.33;2.23;;;;;;;;;;4948220;28;20306;-87
2023/12/27 13:58:07;;;;;;;5.53;2.30;;;;;;;;;;4921306;29;20231;-86
2023/12/27 14:00:36;;;;;;;7.20;2.17;;;;;;;;;;4947909;29;20227;-87
2023/12/27 14:03:01;;;;;;;4.93;2.00;;;;;;;;;;4908665;29;20231;-86
2023/12/27 14:05:31;;;;;;;6.27;1.67;;;;;;;;;;4927117;28;20219;-87
2023/12/27 14:07:59;;;;;;;8.73;2.30;;;;;;;;;;4905905;29;20290;-88
2023/12/27 14:10:25;;;;;;;2.93;1.57;;;;;;;;;;4898530;28;20266;-86
2023/12/27 14:12:57;;;;;;;8.90;2.13;;;;;;;;;;4897226;29;20234;-88
2023/12/27 14:15:22;;;;;;;8.27;2.00;;;;;;;;;;4898467;28;20215;-88
2023/12/27 14:17:51;;;;;;;8.13;1.83;;;;;;;;;;4933387;28;20285;-87
2023/12/27 14:20:16;;;;;;;4.20;2.07;;;;;;;;;;4888000;29;20601;-86
2023/12/27 14:22:49;;;;;;;6.27;1.83;;;;;;;;;;4901127;29;20226;-86
2023/12/27 14:25:15;;;;;;;4.00;2.00;;;;;;;;;;4913085;29;20234;-88
2023/12/27 14:27:42;;;;;;;5.07;2.07;;;;;;;;;;4883358;29;20261;-87
2023/12/27 14:30:11;;;;;;;3.93;2.07;;;;;;;;;;4910090;28;20219;-86
2023/12/27 14:32:37;;;;;;;6.30;2.03;;;;;;;;;;4919704;29;20227;-88
2023/12/27 14:35:03;;;;;;;6.40;1.97;;;;;;;;;;4918584;29;20331;-88
2023/12/27 14:37:30;;;;;;;7.27;1.90;;;;;;;;;;4913595;29;20231;-89
2023/12/27 14:40:06;;;;;;;6.83;1.87;;;;;;;;;;4921349;29;20227;-83
2023/12/27 14:42:34;;;;;;;6.40;2.10;;;;;;;;;;4863167;29;20245;-87
2023/12/27 14:45:09;;;;;;;9.13;2.50;;;;;;;;;;4895888;29;20246;-86
2023/12/27 14:47:35;;;;;;;7.60;2.30;;;;;;;;;;4910153;29;20261;-86
2023/12/27 14:50:08;;;;;;;8.60;2.23;;;;;;;;;;4913111;29;20222;-87